createdAt,value
2023-03-29T00:00:09.583Z,4.00
2023-03-29T00:02:39.815Z,4.00
2023-03-29T00:05:10.622Z,4.00
2023-03-29T00:07:38.497Z,4.00
2023-03-29T00:10:07.575Z,4.00
2023-03-29T00:12:35.479Z,4.10
2023-03-29T00:15:03.515Z,4.10
2023-03-29T00:17:31.894Z,4.00
2023-03-29T00:20:00.157Z,4.00
2023-03-29T00:22:29.289Z,4.00
2023-03-29T00:24:57.041Z,4.00
2023-03-29T00:27:24.867Z,4.00
2023-03-29T00:29:52.643Z,4.00
2023-03-29T00:32:20.554Z,3.90
2023-03-29T00:34:50.721Z,4.00
2023-03-29T00:37:18.813Z,3.90
2023-03-29T00:39:48.265Z,4.00
2023-03-29T00:42:17.874Z,4.00
2023-03-29T00:45:07.088Z,3.90
2023-03-29T00:47:41.490Z,4.00
2023-03-29T00:50:15.811Z,3.90
2023-03-29T00:52:49.040Z,3.90
2023-03-29T00:55:22.767Z,3.90
2023-03-29T00:57:52.239Z,3.90
2023-03-29T01:00:22.997Z,3.90
2023-03-29T01:02:55.085Z,3.90
2023-03-29T01:05:29.532Z,3.90
2023-03-29T01:08:01.871Z,3.80
2023-03-29T01:10:36.769Z,3.90
2023-03-29T01:13:09.468Z,3.80
2023-03-29T01:15:39.621Z,3.80
2023-03-29T01:18:08.791Z,3.90
2023-03-29T01:20:51.958Z,3.90
2023-03-29T01:23:38.142Z,3.90
2023-03-29T01:26:15.835Z,3.80
2023-03-29T01:28:48.554Z,3.80
2023-03-29T01:31:22.535Z,3.80
2023-03-29T01:33:53.986Z,3.80
2023-03-29T01:36:27.151Z,3.70
2023-03-29T01:38:57.917Z,3.70
2023-03-29T01:41:36.721Z,3.60
2023-03-29T01:44:08.103Z,3.60
2023-03-29T01:46:40.964Z,3.60
2023-03-29T01:49:13.845Z,3.60
2023-03-29T01:51:46.910Z,3.60
2023-03-29T01:54:19.688Z,3.60
2023-03-29T01:56:50.503Z,3.50
2023-03-29T01:59:26.185Z,3.60
2023-03-29T02:02:00.326Z,3.50
2023-03-29T02:04:31.730Z,3.50
2023-03-29T02:07:02.684Z,3.60
2023-03-29T02:09:33.332Z,3.60
2023-03-29T02:12:06.887Z,3.50
2023-03-29T02:14:36.433Z,3.50
2023-03-29T02:17:18.412Z,3.50
2023-03-29T02:19:51.220Z,3.50
2023-03-29T02:22:24.898Z,3.50
2023-03-29T02:24:59.003Z,3.60
2023-03-29T02:27:29.097Z,3.60
2023-03-29T02:29:59.839Z,3.60
2023-03-29T02:32:33.097Z,3.60
2023-03-29T02:35:06.587Z,3.70
2023-03-29T02:37:37.145Z,3.70
2023-03-29T02:40:07.902Z,3.70
2023-03-29T02:42:37.829Z,3.80
2023-03-29T02:45:09.578Z,3.80
2023-03-29T02:47:42.298Z,3.80
2023-03-29T02:50:10.701Z,3.90
2023-03-29T02:52:42.580Z,3.90
2023-03-29T02:55:16.844Z,4.00
2023-03-29T02:57:44.796Z,4.10
2023-03-29T03:00:20.141Z,4.20
2023-03-29T03:02:50.815Z,4.30
2023-03-29T03:05:19.382Z,4.40
2023-03-29T03:07:47.663Z,4.50
2023-03-29T03:10:15.934Z,4.60
2023-03-29T03:12:43.874Z,4.70
2023-03-29T03:15:13.400Z,4.80
2023-03-29T03:17:42.955Z,4.80
2023-03-29T03:20:13.718Z,4.90
2023-03-29T03:22:43.966Z,5.00
2023-03-29T03:25:11.945Z,5.00
2023-03-29T03:27:40.164Z,5.10
2023-03-29T03:30:09.482Z,5.10
2023-03-29T03:32:57.397Z,5.10
2023-03-29T03:35:57.007Z,5.10
2023-03-29T03:38:25.440Z,5.10
2023-03-29T03:40:58.529Z,5.20
2023-03-29T03:43:28.176Z,5.20
2023-03-29T03:45:57.387Z,5.10
2023-03-29T03:48:27.958Z,5.20
2023-03-29T03:51:17.658Z,5.20
2023-03-29T03:53:45.905Z,5.20
2023-03-29T03:56:14.407Z,5.20
2023-03-29T03:59:01.120Z,5.30
2023-03-29T04:01:32.088Z,5.30
2023-03-29T04:04:08.347Z,5.30
2023-03-29T04:06:36.412Z,5.30
2023-03-29T04:09:23.307Z,5.30
2023-03-29T04:12:04.533Z,5.30
2023-03-29T04:14:32.711Z,5.30
2023-03-29T04:17:05.670Z,5.30
2023-03-29T04:19:51.979Z,5.30
2023-03-29T04:22:20.591Z,5.30
2023-03-29T04:24:49.441Z,5.40
2023-03-29T04:27:47.088Z,5.30
2023-03-29T04:30:33.771Z,5.30
2023-03-29T04:33:14.329Z,5.30
2023-03-29T04:35:47.097Z,5.30
2023-03-29T04:38:17.604Z,5.30
2023-03-29T04:40:48.440Z,5.30
2023-03-29T04:43:34.923Z,5.30
2023-03-29T04:46:13.209Z,5.30
2023-03-29T04:48:57.412Z,5.30
2023-03-29T04:51:35.773Z,5.30
2023-03-29T04:54:03.884Z,5.30
2023-03-29T04:56:37.966Z,5.20
2023-03-29T04:59:22.163Z,5.20
2023-03-29T05:01:50.144Z,5.20
2023-03-29T05:04:18.397Z,5.20
2023-03-29T05:07:03.021Z,5.20
2023-03-29T05:09:31.665Z,5.20
2023-03-29T05:12:01.882Z,5.20
2023-03-29T05:14:35.158Z,5.20
2023-03-29T05:17:05.274Z,5.30
2023-03-29T05:19:36.333Z,5.30
2023-03-29T05:22:05.708Z,5.30
2023-03-29T05:24:33.954Z,5.30
2023-03-29T05:27:07.407Z,5.30
2023-03-29T05:29:37.503Z,5.30
2023-03-29T05:32:23.944Z,5.30
2023-03-29T05:34:52.877Z,5.30
2023-03-29T05:37:23.148Z,5.40
2023-03-29T05:40:05.577Z,5.40
2023-03-29T05:42:38.642Z,5.40
2023-03-29T05:45:10.534Z,5.40
2023-03-29T05:47:38.411Z,5.50
2023-03-29T05:50:10.225Z,5.50
2023-03-29T05:52:41.083Z,5.50
2023-03-29T05:55:10.310Z,5.60
2023-03-29T05:57:38.388Z,5.60
2023-03-29T06:00:15.962Z,5.60
2023-03-29T06:02:43.987Z,5.70
2023-03-29T06:05:11.943Z,5.70
2023-03-29T06:07:56.593Z,5.70
2023-03-29T06:10:27.688Z,5.70
2023-03-29T06:13:07.115Z,5.80
2023-03-29T06:15:36.009Z,5.80
2023-03-29T06:18:07.070Z,5.90
2023-03-29T06:20:36.658Z,5.90
2023-03-29T06:23:11.771Z,6.00
2023-03-29T06:25:39.585Z,6.00
2023-03-29T06:28:08.396Z,6.00
2023-03-29T06:30:36.730Z,6.10
2023-03-29T06:33:06.393Z,6.20
2023-03-29T06:35:50.130Z,6.20
2023-03-29T06:38:24.631Z,6.30
2023-03-29T06:41:18.334Z,6.30
2023-03-29T06:43:57.797Z,6.40
2023-03-29T06:46:32.695Z,6.40
2023-03-29T06:49:06.184Z,6.40
2023-03-29T06:51:42.842Z,6.50
2023-03-29T06:54:12.591Z,6.60
2023-03-29T06:56:49.181Z,6.70
2023-03-29T06:59:19.016Z,6.90
2023-03-29T07:01:55.464Z,7.00
2023-03-29T07:04:35.156Z,7.20
2023-03-29T07:07:20.215Z,7.30
2023-03-29T07:09:55.538Z,7.40
2023-03-29T07:12:44.631Z,7.50
2023-03-29T07:15:13.755Z,7.70
2023-03-29T07:18:05.414Z,7.80
2023-03-29T07:20:34.694Z,7.90
2023-03-29T07:23:09.507Z,7.90
2023-03-29T07:25:39.300Z,8.00
2023-03-29T07:28:09.156Z,8.10
2023-03-29T07:30:37.266Z,8.20
2023-03-29T07:33:20.230Z,8.30
2023-03-29T07:35:55.203Z,8.40
2023-03-29T07:38:23.159Z,8.50
2023-03-29T07:41:07.575Z,8.60
2023-03-29T07:43:51.789Z,8.70
2023-03-29T07:46:24.939Z,8.80
2023-03-29T07:48:53.118Z,9.00
2023-03-29T07:51:21.509Z,9.10
2023-03-29T07:53:51.123Z,9.10
2023-03-29T07:56:39.459Z,9.20
2023-03-29T07:59:20.720Z,9.30
2023-03-29T08:01:56.658Z,9.40
2023-03-29T08:04:32.508Z,9.50
2023-03-29T08:07:38.375Z,9.60
2023-03-29T08:10:25.624Z,9.60
2023-03-29T08:13:10.200Z,9.80
2023-03-29T08:16:08.857Z,9.90
2023-03-29T08:18:41.600Z,10.10
2023-03-29T08:21:09.988Z,10.20
2023-03-29T08:23:38.283Z,10.40
2023-03-29T08:26:26.719Z,10.50
2023-03-29T08:28:57.368Z,10.60
2023-03-29T08:31:28.235Z,10.60
2023-03-29T08:33:56.531Z,10.60
2023-03-29T08:36:47.572Z,10.70
2023-03-29T08:39:25.479Z,10.70
2023-03-29T08:42:22.390Z,10.70
2023-03-29T08:45:03.347Z,10.80
2023-03-29T08:47:38.833Z,10.90
2023-03-29T08:50:14.799Z,11.00
2023-03-29T08:52:52.822Z,11.10
2023-03-29T08:55:43.614Z,11.10
2023-03-29T08:58:34.239Z,11.20
2023-03-29T09:01:08.545Z,11.20
2023-03-29T09:03:50.768Z,11.30
2023-03-29T09:06:31.785Z,11.50
2023-03-29T09:09:16.567Z,11.70
2023-03-29T09:11:56.530Z,11.90
2023-03-29T09:14:35.750Z,12.10
2023-03-29T09:17:18.039Z,12.20
2023-03-29T09:19:52.388Z,12.30
2023-03-29T09:22:28.819Z,12.40
2023-03-29T09:25:05.994Z,12.30
2023-03-29T09:27:42.599Z,12.40
2023-03-29T09:30:25.968Z,12.40
2023-03-29T09:33:06.708Z,12.40
2023-03-29T09:35:54.682Z,12.40
2023-03-29T09:38:23.528Z,12.40
2023-03-29T09:40:55.014Z,12.60
2023-03-29T09:43:31.548Z,12.80
2023-03-29T09:46:06.115Z,13.00
2023-03-29T09:48:41.921Z,13.20
2023-03-29T09:51:11.413Z,13.30
2023-03-29T09:53:40.469Z,13.40
2023-03-29T09:56:27.434Z,13.50
2023-03-29T09:59:04.904Z,13.60
2023-03-29T10:01:38.644Z,13.70
2023-03-29T10:04:10.435Z,13.60
2023-03-29T10:06:44.221Z,13.60
2023-03-29T10:09:17.455Z,13.70
2023-03-29T10:11:49.151Z,13.70
2023-03-29T10:14:19.566Z,13.80
2023-03-29T10:16:48.146Z,13.90
2023-03-29T10:19:21.174Z,13.90
2023-03-29T10:21:50.004Z,14.00
2023-03-29T10:24:20.210Z,13.90
2023-03-29T10:26:49.378Z,13.80
2023-03-29T10:29:17.623Z,13.70
2023-03-29T10:31:45.686Z,13.70
2023-03-29T10:34:16.472Z,13.90
2023-03-29T10:36:52.196Z,14.00
2023-03-29T10:39:20.365Z,14.10
2023-03-29T10:41:53.174Z,14.10
2023-03-29T10:44:31.526Z,14.30
2023-03-29T10:47:10.591Z,14.50
2023-03-29T10:49:43.432Z,14.60
2023-03-29T10:52:14.636Z,14.80
2023-03-29T10:54:42.502Z,14.90
2023-03-29T10:57:15.844Z,15.00
2023-03-29T10:59:53.489Z,15.10
2023-03-29T11:02:49.373Z,14.80
2023-03-29T11:05:28.944Z,14.50
2023-03-29T11:08:11.240Z,14.50
2023-03-29T11:10:48.130Z,14.60
2023-03-29T11:13:25.999Z,14.90
2023-03-29T11:16:06.510Z,15.10
2023-03-29T11:19:02.605Z,15.20
2023-03-29T11:21:37.389Z,15.20
2023-03-29T11:24:29.526Z,15.10
2023-03-29T11:27:14.310Z,14.90
2023-03-29T11:29:52.961Z,14.90
2023-03-29T11:32:33.307Z,15.20
2023-03-29T11:35:12.806Z,15.40
2023-03-29T11:37:48.926Z,15.70
2023-03-29T11:40:36.208Z,15.80
2023-03-29T11:43:06.974Z,15.90
2023-03-29T11:45:39.867Z,15.90
2023-03-29T11:48:13.466Z,16.00
2023-03-29T11:50:48.703Z,16.10
2023-03-29T11:53:22.480Z,16.10
2023-03-29T11:55:53.148Z,16.10
2023-03-29T11:58:24.213Z,15.90
2023-03-29T12:00:57.954Z,15.80
2023-03-29T12:03:37.048Z,15.80
2023-03-29T12:06:11.953Z,15.70
2023-03-29T12:08:45.213Z,15.70
2023-03-29T12:11:21.385Z,15.70
2023-03-29T12:13:54.455Z,15.80
2023-03-29T12:16:27.263Z,15.80
2023-03-29T12:18:57.742Z,15.80
2023-03-29T12:21:29.565Z,15.90
2023-03-29T12:23:59.140Z,15.90
2023-03-29T12:26:46.978Z,15.90
2023-03-29T12:29:29.596Z,16.00
2023-03-29T12:32:07.440Z,16.20
2023-03-29T12:34:59.726Z,16.20
2023-03-29T12:37:52.287Z,16.40
2023-03-29T12:40:43.169Z,16.40
2023-03-29T12:43:33.668Z,16.50
2023-03-29T12:46:32.120Z,16.30
2023-03-29T12:49:07.657Z,16.20
2023-03-29T12:51:37.128Z,16.20
2023-03-29T12:54:09.518Z,16.30
2023-03-29T12:56:41.601Z,16.50
2023-03-29T12:59:27.160Z,16.70
2023-03-29T13:02:01.662Z,16.70
2023-03-29T13:04:49.255Z,16.50
2023-03-29T13:07:30.688Z,16.30
2023-03-29T13:10:00.168Z,16.20
2023-03-29T13:12:32.931Z,16.00
2023-03-29T13:15:06.537Z,16.00
2023-03-29T13:17:49.561Z,16.30
2023-03-29T13:20:31.401Z,16.60
2023-03-29T13:23:12.580Z,16.90
2023-03-29T13:25:58.634Z,16.90
2023-03-29T13:28:36.636Z,16.80
2023-03-29T13:31:12.794Z,16.30
2023-03-29T13:33:57.900Z,15.90
2023-03-29T13:36:39.351Z,15.70
2023-03-29T13:39:08.255Z,15.60
2023-03-29T13:41:48.234Z,15.50
2023-03-29T13:44:27.136Z,15.40
2023-03-29T13:47:13.276Z,15.40
2023-03-29T13:49:44.598Z,15.30
2023-03-29T13:52:16.629Z,15.20
2023-03-29T13:54:51.808Z,15.30
2023-03-29T13:57:22.355Z,15.20
2023-03-29T14:00:00.503Z,15.10
2023-03-29T14:02:42.524Z,15.00
2023-03-29T14:05:14.072Z,15.00
2023-03-29T14:07:47.045Z,15.00
2023-03-29T14:10:17.896Z,15.00
2023-03-29T14:12:46.948Z,15.00
2023-03-29T14:15:24.673Z,15.10
2023-03-29T14:18:00.816Z,15.20
2023-03-29T14:20:29.536Z,15.20
2023-03-29T14:22:57.355Z,15.20
2023-03-29T14:25:25.523Z,15.20
2023-03-29T14:27:53.295Z,15.30
2023-03-29T14:30:24.964Z,15.40
2023-03-29T14:32:53.138Z,15.50
2023-03-29T14:35:29.668Z,15.60
2023-03-29T14:37:57.962Z,15.70
2023-03-29T14:40:27.589Z,15.80
2023-03-29T14:42:56.367Z,15.80
2023-03-29T14:45:24.718Z,15.80
2023-03-29T14:47:53.265Z,15.60
2023-03-29T14:50:26.170Z,15.50
2023-03-29T14:52:54.901Z,15.50
2023-03-29T14:55:24.875Z,15.40
2023-03-29T14:57:55.118Z,15.40
2023-03-29T15:00:28.229Z,15.40
2023-03-29T15:02:58.708Z,15.30
2023-03-29T15:05:38.500Z,15.20
2023-03-29T15:08:09.907Z,15.10
2023-03-29T15:10:39.020Z,15.00
2023-03-29T15:13:08.745Z,14.80
2023-03-29T15:15:39.016Z,14.70
2023-03-29T15:18:08.788Z,14.60
2023-03-29T15:20:39.986Z,14.60
2023-03-29T15:23:19.967Z,14.70
2023-03-29T15:25:51.919Z,14.80
2023-03-29T15:28:30.905Z,15.00
2023-03-29T15:33:37.080Z,15.30
2023-03-29T15:36:08.091Z,15.30
2023-03-29T15:38:43.803Z,15.30
2023-03-29T15:41:14.716Z,15.30
2023-03-29T15:43:42.752Z,15.30
2023-03-29T15:46:13.118Z,15.10
2023-03-29T15:48:41.747Z,15.10
2023-03-29T15:51:12.383Z,15.00
2023-03-29T15:53:40.412Z,14.90
2023-03-29T15:56:11.277Z,14.80
2023-03-29T15:58:39.709Z,14.70
2023-03-29T16:01:13.178Z,14.60
2023-03-29T16:03:41.628Z,14.50
2023-03-29T16:06:13.288Z,14.50
2023-03-29T16:08:41.843Z,14.40
2023-03-29T16:11:09.989Z,14.30
2023-03-29T16:13:37.836Z,14.30
2023-03-29T16:16:06.711Z,14.30
2023-03-29T16:18:35.728Z,14.30
2023-03-29T16:21:03.643Z,14.20
2023-03-29T16:23:32.868Z,14.20
2023-03-29T16:26:00.935Z,14.20
2023-03-29T16:28:29.166Z,14.10
2023-03-29T16:30:56.975Z,14.00
2023-03-29T16:33:24.841Z,13.90
2023-03-29T16:35:53.146Z,13.90
2023-03-29T16:38:21.766Z,13.80
2023-03-29T16:40:51.377Z,13.80
2023-03-29T16:43:33.575Z,13.70
2023-03-29T16:46:01.667Z,13.70
2023-03-29T16:48:29.730Z,13.60
2023-03-29T16:50:57.528Z,13.60
2023-03-29T16:53:26.998Z,13.50
2023-03-29T16:55:56.589Z,13.50
2023-03-29T16:58:24.688Z,13.40
2023-03-29T17:00:53.671Z,13.40
2023-03-29T17:03:21.885Z,13.30
2023-03-29T17:05:50.267Z,13.30
2023-03-29T17:08:18.513Z,13.30
2023-03-29T17:10:46.498Z,13.20
2023-03-29T17:13:15.707Z,13.10
2023-03-29T17:15:43.707Z,13.10
2023-03-29T17:18:12.219Z,13.10
2023-03-29T17:20:41.268Z,13.00
2023-03-29T17:23:09.736Z,12.90
2023-03-29T17:25:37.848Z,12.90
2023-03-29T17:28:05.778Z,12.80
2023-03-29T17:30:36.215Z,12.80
2023-03-29T17:33:04.842Z,12.70
2023-03-29T17:35:33.213Z,12.70
2023-03-29T17:38:01.397Z,12.60
2023-03-29T17:40:29.273Z,12.60
2023-03-29T17:42:57.203Z,12.50
2023-03-29T17:45:26.427Z,12.40
2023-03-29T17:47:55.690Z,12.40
2023-03-29T17:50:23.743Z,12.30
2023-03-29T17:52:51.720Z,12.30
2023-03-29T17:55:20.973Z,12.30
2023-03-29T17:57:50.005Z,12.20
2023-03-29T18:00:18.805Z,12.20
2023-03-29T18:02:46.878Z,12.20
2023-03-29T18:05:16.228Z,12.20
2023-03-29T18:07:44.103Z,12.20
2023-03-29T18:10:12.412Z,12.10
2023-03-29T18:12:40.227Z,12.10
2023-03-29T18:15:09.560Z,12.10
2023-03-29T18:17:37.457Z,12.10
2023-03-29T18:20:11.035Z,12.10
2023-03-29T18:22:41.338Z,12.10
2023-03-29T18:25:11.010Z,12.10
2023-03-29T18:27:39.457Z,12.10
2023-03-29T18:30:09.165Z,12.10
2023-03-29T18:32:37.174Z,12.10
2023-03-29T18:35:06.189Z,12.10
2023-03-29T18:37:34.071Z,12.10
2023-03-29T18:40:06.805Z,12.10
2023-03-29T18:42:35.816Z,12.10
2023-03-29T18:45:04.591Z,12.10
2023-03-29T18:47:32.594Z,12.00
2023-03-29T18:50:02.486Z,12.00
2023-03-29T18:52:33.535Z,12.00
2023-03-29T18:55:03.142Z,12.00
2023-03-29T18:57:31.934Z,11.90
2023-03-29T19:00:00.192Z,11.90
2023-03-29T19:02:28.933Z,11.80
2023-03-29T19:04:58.012Z,11.80
2023-03-29T19:07:26.113Z,11.80
2023-03-29T19:10:03.360Z,11.70
2023-03-29T19:12:33.743Z,11.70
2023-03-29T19:15:01.946Z,11.70
2023-03-29T19:17:30.079Z,11.60
2023-03-29T19:19:58.382Z,11.60
2023-03-29T19:22:26.654Z,11.60
2023-03-29T19:24:54.727Z,11.60
2023-03-29T19:27:22.760Z,11.50
2023-03-29T19:29:52.223Z,11.50
2023-03-29T19:32:20.420Z,11.50
2023-03-29T19:34:48.676Z,11.50
2023-03-29T19:37:17.674Z,11.40
2023-03-29T19:39:46.188Z,11.40
2023-03-29T19:42:14.306Z,11.40
2023-03-29T19:44:42.429Z,11.40
2023-03-29T19:47:11.991Z,11.30
2023-03-29T19:49:39.912Z,11.40
2023-03-29T19:52:11.040Z,11.40
2023-03-29T19:54:39.114Z,11.40
2023-03-29T19:57:09.091Z,11.30
2023-03-29T19:59:38.024Z,11.30
2023-03-29T20:02:06.560Z,11.30
2023-03-29T20:04:35.793Z,11.20
2023-03-29T20:07:04.015Z,11.30
2023-03-29T20:09:32.432Z,11.30
2023-03-29T20:12:00.851Z,11.30
2023-03-29T20:14:28.691Z,11.30
2023-03-29T20:16:56.549Z,11.30
2023-03-29T20:19:25.331Z,11.30
2023-03-29T20:21:57.731Z,11.40
2023-03-29T20:24:26.557Z,11.40
2023-03-29T20:26:54.550Z,11.40
2023-03-29T20:29:22.425Z,11.40
2023-03-29T20:31:50.423Z,11.50
2023-03-29T20:34:18.668Z,11.60
2023-03-29T20:36:46.767Z,11.60
2023-03-29T20:39:18.200Z,11.60
2023-03-29T20:41:48.656Z,11.70
2023-03-29T20:44:18.389Z,11.70
2023-03-29T20:46:54.303Z,11.70
2023-03-29T20:49:26.529Z,11.70
2023-03-29T20:51:58.590Z,11.80
2023-03-29T20:54:27.894Z,11.80
2023-03-29T20:56:56.037Z,11.80
2023-03-29T20:59:23.900Z,11.80
2023-03-29T21:01:52.006Z,11.80
2023-03-29T21:04:20.135Z,11.80
2023-03-29T21:06:49.586Z,11.80
2023-03-29T21:09:17.713Z,11.80
2023-03-29T21:11:46.923Z,11.70
2023-03-29T21:14:19.366Z,11.80
2023-03-29T21:16:47.302Z,11.80
2023-03-29T21:19:16.382Z,11.80
2023-03-29T21:21:44.874Z,11.80
2023-03-29T21:24:14.230Z,11.80
2023-03-29T21:26:42.323Z,11.80
2023-03-29T21:29:11.813Z,11.80
2023-03-29T21:31:40.076Z,11.80
2023-03-29T21:34:08.063Z,11.80
2023-03-29T21:36:36.312Z,11.80
2023-03-29T21:39:04.384Z,11.80
2023-03-29T21:41:32.232Z,11.80
2023-03-29T21:44:00.258Z,11.80
2023-03-29T21:46:29.475Z,11.80
2023-03-29T21:48:57.329Z,11.80
2023-03-29T21:51:25.138Z,11.80
2023-03-29T21:53:52.881Z,11.80
2023-03-29T21:56:22.416Z,11.80
2023-03-29T21:58:50.267Z,11.80
2023-03-29T22:01:18.125Z,11.80
2023-03-29T22:03:47.559Z,11.90
2023-03-29T22:06:15.996Z,11.90
2023-03-29T22:08:46.634Z,11.80
2023-03-29T22:11:16.190Z,11.80
2023-03-29T22:13:44.587Z,11.80
2023-03-29T22:16:16.659Z,11.80
2023-03-29T22:18:46.951Z,11.80
2023-03-29T22:21:18.310Z,11.80
2023-03-29T22:23:49.659Z,11.80
2023-03-29T22:26:19.625Z,11.80
2023-03-29T22:28:47.391Z,11.80
2023-03-29T22:31:17.339Z,11.80
2023-03-29T22:33:46.146Z,11.80
2023-03-29T22:36:17.987Z,11.80
2023-03-29T22:38:46.705Z,11.90
2023-03-29T22:41:15.804Z,11.90
2023-03-29T22:43:43.622Z,11.90
2023-03-29T22:46:13.269Z,12.00
2023-03-29T22:48:41.291Z,12.00
2023-03-29T22:51:09.082Z,12.00
2023-03-29T22:53:38.246Z,12.00
2023-03-29T22:56:07.374Z,12.00
2023-03-29T22:58:35.184Z,12.00
2023-03-29T23:01:03.487Z,12.00
2023-03-29T23:03:31.530Z,12.00
2023-03-29T23:06:02.229Z,12.00
2023-03-29T23:08:31.110Z,12.00
2023-03-29T23:11:00.937Z,11.90
2023-03-29T23:13:29.380Z,11.90
2023-03-29T23:16:00.104Z,11.90
2023-03-29T23:18:29.585Z,11.90
2023-03-29T23:21:00.126Z,11.90
2023-03-29T23:23:29.144Z,11.90
2023-03-29T23:25:57.862Z,11.80
2023-03-29T23:28:30.446Z,11.80
2023-03-29T23:31:00.959Z,11.80
2023-03-29T23:33:30.579Z,11.80
2023-03-29T23:35:58.439Z,11.80
2023-03-29T23:38:26.376Z,11.80
2023-03-29T23:40:58.635Z,11.80
2023-03-29T23:43:32.641Z,11.80
2023-03-29T23:46:02.041Z,11.80
2023-03-29T23:48:30.122Z,11.80
2023-03-29T23:50:58.101Z,11.80
2023-03-29T23:53:28.963Z,11.80
2023-03-29T23:55:58.171Z,11.80
2023-03-29T23:58:27.595Z,11.80
